createdAt,value
2023-10-07T00:01:50.238Z,62.27
2023-10-07T00:06:52.415Z,61.80
2023-10-07T00:11:55.602Z,62.97
2023-10-07T00:16:58.614Z,63.04
2023-10-07T00:22:00.563Z,63.49
2023-10-07T00:27:02.152Z,63.72
2023-10-07T00:32:05.863Z,63.68
2023-10-07T00:37:07.434Z,64.00
2023-10-07T00:42:09.005Z,63.98
2023-10-07T00:47:13.333Z,63.68
2023-10-07T00:52:25.282Z,64.73
2023-10-07T00:57:36.094Z,63.84
2023-10-07T01:02:38.723Z,64.26
2023-10-07T01:07:42.107Z,63.75
2023-10-07T01:12:44.104Z,63.04
2023-10-07T01:17:48.744Z,63.83
2023-10-07T01:23:04.481Z,63.60
2023-10-07T01:28:09.107Z,63.03
2023-10-07T01:33:25.958Z,62.93
2023-10-07T01:38:27.471Z,64.06
2023-10-07T01:43:28.997Z,64.88
2023-10-07T01:48:30.916Z,65.40
2023-10-07T01:53:35.514Z,64.65
2023-10-07T01:58:37.049Z,64.58
2023-10-07T02:03:38.713Z,64.16
2023-10-07T02:08:40.256Z,62.31
2023-10-07T02:13:41.784Z,61.93
2023-10-07T02:18:45.962Z,59.44
2023-10-07T02:23:47.623Z,58.79
2023-10-07T02:28:52.990Z,58.75
2023-10-07T02:33:58.518Z,57.99
2023-10-07T02:39:19.596Z,57.14
2023-10-07T02:44:28.693Z,57.12
2023-10-07T02:49:30.268Z,56.88
2023-10-07T02:54:34.691Z,56.05
2023-10-07T02:59:37.493Z,56.50
2023-10-07T03:04:44.784Z,56.94
2023-10-07T03:10:05.898Z,55.99
2023-10-07T03:15:22.127Z,55.92
2023-10-07T03:20:23.969Z,56.29
2023-10-07T03:25:34.376Z,57.10
2023-10-07T03:30:38.021Z,57.21
2023-10-07T03:35:59.617Z,57.11
2023-10-07T03:41:01.108Z,57.67
2023-10-07T03:46:02.742Z,58.95
2023-10-07T03:51:07.421Z,59.32
2023-10-07T03:56:09.202Z,59.94
2023-10-07T04:01:20.238Z,60.55
2023-10-07T04:06:21.991Z,60.28
2023-10-07T04:11:29.609Z,59.68
2023-10-07T04:16:34.761Z,59.11
2023-10-07T04:21:42.937Z,59.57
2023-10-07T04:26:57.860Z,59.86
2023-10-07T04:32:06.803Z,59.92
2023-10-07T04:37:08.430Z,60.59
2023-10-07T04:42:21.211Z,60.35
2023-10-07T04:47:39.957Z,60.57
2023-10-07T04:52:41.904Z,61.07
2023-10-07T04:57:57.443Z,60.96
2023-10-07T05:03:03.082Z,60.81
2023-10-07T05:08:20.440Z,61.08
2023-10-07T05:13:22.418Z,61.35
2023-10-07T05:18:23.918Z,61.35
2023-10-07T05:23:25.422Z,61.53
2023-10-07T05:28:28.431Z,61.27
2023-10-07T05:33:33.151Z,62.07
2023-10-07T05:38:36.294Z,61.58
2023-10-07T05:43:37.849Z,62.01
2023-10-07T05:48:40.109Z,62.23
2023-10-07T05:53:44.061Z,61.78
2023-10-07T05:58:46.554Z,62.38
2023-10-07T06:03:48.263Z,63.11
2023-10-07T06:08:50.089Z,63.78
2023-10-07T06:13:52.962Z,64.43
2023-10-07T06:18:55.238Z,64.10
2023-10-07T06:23:59.805Z,64.24
2023-10-07T06:29:15.624Z,64.37
2023-10-07T06:34:26.590Z,63.40
2023-10-07T06:39:30.659Z,63.86
2023-10-07T06:44:32.181Z,63.66
2023-10-07T06:49:40.310Z,63.46
2023-10-07T06:54:52.561Z,62.81
2023-10-07T07:00:09.952Z,62.83
2023-10-07T07:05:17.795Z,63.18
2023-10-07T07:10:28.962Z,63.06
2023-10-07T07:15:37.596Z,62.38
2023-10-07T07:20:54.847Z,62.01
2023-10-07T07:26:05.131Z,62.09
2023-10-07T07:31:12.106Z,62.50
2023-10-07T07:36:21.087Z,62.95
2023-10-07T07:41:35.932Z,62.07
2023-10-07T07:46:57.354Z,61.36
2023-10-07T07:52:00.488Z,61.42
2023-10-07T07:57:05.852Z,61.09
2023-10-07T08:02:14.118Z,60.91
2023-10-07T08:07:25.267Z,60.18
2023-10-07T08:12:31.533Z,60.06
2023-10-07T08:17:33.138Z,59.53
2023-10-07T08:22:38.665Z,59.90
2023-10-07T08:27:46.155Z,59.68
2023-10-07T08:37:51.058Z,59.78
2023-10-07T08:43:01.006Z,59.71
2023-10-07T08:48:16.548Z,59.74
2023-10-07T08:53:18.510Z,60.43
2023-10-07T08:58:22.036Z,61.06
2023-10-07T09:03:27.870Z,60.99
2023-10-07T09:08:34.681Z,60.52
2023-10-07T09:13:39.572Z,60.08
2023-10-07T09:18:43.912Z,60.47
2023-10-07T09:24:00.034Z,60.03
2023-10-07T09:29:23.181Z,60.71
2023-10-07T09:34:43.157Z,60.37
2023-10-07T09:39:46.099Z,60.60
2023-10-07T09:44:48.089Z,60.53
2023-10-07T09:49:51.814Z,60.80
2023-10-07T09:55:22.126Z,60.82
2023-10-07T10:00:39.164Z,60.64
2023-10-07T10:05:53.694Z,60.91
2023-10-07T10:10:59.362Z,61.87
2023-10-07T10:16:01.904Z,61.67
2023-10-07T10:21:10.464Z,61.00
2023-10-07T10:26:15.802Z,60.81
2023-10-07T10:31:20.201Z,61.04
2023-10-07T10:36:24.686Z,61.11
2023-10-07T10:41:29.594Z,61.16
2023-10-07T10:46:45.132Z,60.23
2023-10-07T10:51:49.160Z,60.90
2023-10-07T10:56:58.553Z,60.79
2023-10-07T11:02:02.940Z,61.19
2023-10-07T11:07:08.324Z,61.59
2023-10-07T11:12:17.801Z,61.43
2023-10-07T11:17:19.507Z,61.06
2023-10-07T11:22:21.529Z,61.47
2023-10-07T11:27:25.075Z,60.44
2023-10-07T11:32:30.826Z,60.60
2023-10-07T11:37:34.062Z,60.45
2023-10-07T11:42:35.699Z,60.64
2023-10-07T11:47:37.913Z,59.93
2023-10-07T11:52:42.044Z,60.26
2023-10-07T11:57:43.705Z,60.59
2023-10-07T12:02:45.497Z,60.01
2023-10-07T12:07:48.861Z,60.74
2023-10-07T12:12:53.292Z,59.99
2023-10-07T12:17:54.985Z,59.57
2023-10-07T12:22:57.682Z,60.46
2023-10-07T12:27:59.231Z,60.11
2023-10-07T12:33:00.820Z,60.17
2023-10-07T12:38:02.416Z,59.95
2023-10-07T12:43:04.046Z,59.51
2023-10-07T12:48:05.997Z,58.88
2023-10-07T12:53:11.738Z,59.66
2023-10-07T12:58:20.914Z,58.94
2023-10-07T13:03:22.589Z,59.05
2023-10-07T13:08:28.348Z,59.25
2023-10-07T13:13:35.311Z,59.72
2023-10-07T13:18:36.976Z,59.36
2023-10-07T13:23:39.662Z,59.24
2023-10-07T13:28:41.995Z,59.18
2023-10-07T13:33:43.527Z,58.70
2023-10-07T13:38:45.049Z,58.72
2023-10-07T13:43:46.604Z,59.29
2023-10-07T13:48:48.112Z,59.57
2023-10-07T13:54:12.809Z,60.04
2023-10-07T13:59:14.899Z,59.65
2023-10-07T14:04:17.016Z,60.54
2023-10-07T14:09:25.708Z,58.43
2023-10-07T14:14:27.337Z,58.92
2023-10-07T14:19:29.426Z,58.92
2023-10-07T14:24:31.508Z,58.21
2023-10-07T14:29:33.089Z,59.08
2023-10-07T14:34:34.647Z,58.17
2023-10-07T14:39:46.757Z,58.44
2023-10-07T14:44:58.081Z,58.60
2023-10-07T14:49:59.594Z,58.46
2023-10-07T14:55:06.913Z,57.96
2023-10-07T15:00:11.624Z,58.57
2023-10-07T15:05:16.190Z,59.26
2023-10-07T15:10:19.504Z,59.68
2023-10-07T15:15:21.002Z,60.38
2023-10-07T15:20:23.666Z,60.75
2023-10-07T15:25:25.985Z,60.72
2023-10-07T15:30:27.571Z,61.30
2023-10-07T15:35:29.436Z,62.21
2023-10-07T15:40:30.953Z,62.20
2023-10-07T15:45:32.523Z,61.93
2023-10-07T15:50:34.201Z,63.10
2023-10-07T15:55:36.431Z,62.05
2023-10-07T16:00:39.514Z,61.33
2023-10-07T16:05:41.543Z,61.42
2023-10-07T16:10:43.168Z,61.72
2023-10-07T16:15:44.686Z,62.03
2023-10-07T16:20:46.486Z,61.76
2023-10-07T16:25:48.118Z,62.40
2023-10-07T16:30:49.629Z,61.08
2023-10-07T16:35:51.236Z,61.01
2023-10-07T16:40:52.774Z,61.38
2023-10-07T16:45:54.456Z,61.91
2023-10-07T16:50:56.402Z,61.34
2023-10-07T16:55:58.496Z,61.02
2023-10-07T17:01:00.052Z,60.96
2023-10-07T17:06:02.269Z,61.22
2023-10-07T17:11:03.887Z,61.11
2023-10-07T17:16:05.468Z,61.18
2023-10-07T17:21:09.770Z,61.04
2023-10-07T17:26:11.638Z,61.37
2023-10-07T17:31:13.257Z,61.63
2023-10-07T17:36:15.060Z,61.34
2023-10-07T17:41:19.020Z,61.24
2023-10-07T17:46:20.797Z,61.98
2023-10-07T17:51:22.361Z,62.24
2023-10-07T17:56:25.114Z,63.23
2023-10-07T18:01:28.232Z,63.09
2023-10-07T18:06:30.640Z,63.71
2023-10-07T18:11:32.209Z,63.08
2023-10-07T18:16:33.760Z,62.52
2023-10-07T18:21:35.273Z,62.40
2023-10-07T18:26:36.799Z,61.80
2023-10-07T18:31:38.414Z,61.92
2023-10-07T18:36:40.041Z,62.04
2023-10-07T18:41:44.313Z,61.26
2023-10-07T18:46:47.998Z,60.68
2023-10-07T18:51:49.576Z,60.34
2023-10-07T18:56:51.076Z,60.08
2023-10-07T19:01:52.642Z,58.40
2023-10-07T19:06:54.604Z,59.08
2023-10-07T19:11:56.131Z,59.15
2023-10-07T19:16:58.882Z,58.91
2023-10-07T19:22:01.570Z,57.70
2023-10-07T19:27:03.304Z,58.09
2023-10-07T19:32:05.216Z,57.88
2023-10-07T19:37:10.339Z,57.55
2023-10-07T19:42:12.222Z,57.14
2023-10-07T19:47:13.877Z,56.88
2023-10-07T19:52:15.436Z,56.85
2023-10-07T19:57:16.989Z,56.99
2023-10-07T20:02:18.547Z,56.27
2023-10-07T20:07:21.942Z,56.19
2023-10-07T20:12:23.613Z,56.04
2023-10-07T20:17:25.254Z,55.87
2023-10-07T20:22:26.837Z,55.99
2023-10-07T20:27:28.435Z,55.49
2023-10-07T20:32:30.013Z,55.33
2023-10-07T20:37:34.637Z,55.91
2023-10-07T20:42:36.193Z,55.08
2023-10-07T20:47:37.817Z,55.45
2023-10-07T20:52:39.368Z,54.96
2023-10-07T20:57:41.205Z,54.18
2023-10-07T21:02:48.592Z,53.17
2023-10-07T21:07:50.196Z,52.29
2023-10-07T21:12:51.806Z,51.71
2023-10-07T21:17:53.508Z,51.08
2023-10-07T21:22:55.079Z,50.74
2023-10-07T21:27:56.584Z,50.72
2023-10-07T21:32:58.121Z,50.77
2023-10-07T21:37:59.715Z,50.81
2023-10-07T21:43:01.768Z,49.99
2023-10-07T21:48:03.646Z,50.82
2023-10-07T21:53:05.350Z,50.85
2023-10-07T21:58:07.034Z,51.39
2023-10-07T22:03:15.626Z,51.71
2023-10-07T22:08:17.549Z,51.38
2023-10-07T22:13:20.264Z,53.34
2023-10-07T22:18:22.803Z,52.11
2023-10-07T22:23:24.349Z,51.27
2023-10-07T22:28:26.152Z,51.20
2023-10-07T22:33:27.727Z,51.04
2023-10-07T22:38:29.258Z,50.12
2023-10-07T22:43:36.968Z,50.15
2023-10-07T22:48:40.587Z,49.08
2023-10-07T22:53:50.886Z,49.02
2023-10-07T22:58:52.736Z,48.75
2023-10-07T23:03:58.330Z,48.06
2023-10-07T23:08:59.998Z,49.03
2023-10-07T23:14:07.862Z,48.35
2023-10-07T23:19:09.870Z,48.32
2023-10-07T23:24:30.932Z,47.98
2023-10-07T23:29:36.623Z,47.33
2023-10-07T23:34:38.219Z,47.69
2023-10-07T23:39:39.759Z,47.80
2023-10-07T23:44:41.869Z,48.27
2023-10-07T23:49:44.145Z,48.26
2023-10-07T23:54:45.697Z,45.93
2023-10-07T23:59:51.114Z,46.61
